Time;durP1;ratioP1;P1;durP2;ratioP2;P2;SDS_P1;SDS_P2;PMS_P1;PMS_P2;Temp;Humidity;BMP_temperature;BMP_pressure;BME280_temperature;BME280_humidity;BME280_pressure;Samples;Min_cycle;Max_cycle;Signal;HPM_P1;HPM_P2
2022/03/31 00:03:08;;;;;;;13.50;8.03;;;;;;;5.27;88.50;97571.00;8249371;28;20053;-70
2022/03/31 00:07:11;;;;;;;11.07;8.73;;;;;;;5.15;88.20;97566.84;8252258;28;20057;-70
2022/03/31 00:11:13;;;;;;;14.80;9.63;;;;;;;5.08;88.35;97565.25;8251868;28;20058;-70
2022/03/31 00:15:14;;;;;;;13.53;9.43;;;;;;;5.04;88.81;97573.88;8250092;28;20061;-71
2022/03/31 00:19:16;;;;;;;9.13;7.85;;;;;;;5.01;89.14;97570.44;8252009;28;20094;-70
2022/03/31 00:23:18;;;;;;;9.80;7.67;;;;;;;4.97;88.95;97569.66;8254178;28;20051;-70
2022/03/31 00:27:19;;;;;;;12.50;8.83;;;;;;;4.94;88.61;97567.13;8251405;28;20054;-70
2022/03/31 00:31:21;;;;;;;10.93;8.00;;;;;;;4.85;88.60;97560.38;8247619;28;20474;-70
2022/03/31 00:35:23;;;;;;;12.43;7.13;;;;;;;4.76;88.71;97560.47;8252986;28;20086;-70
2022/03/31 00:39:32;;;;;;;10.93;8.02;;;;;;;4.64;88.41;97558.00;8251467;28;20058;-71
2022/03/31 00:43:33;;;;;;;9.23;7.50;;;;;;;4.58;88.70;97552.09;8251050;28;20157;-71
2022/03/31 00:47:35;;;;;;;10.43;7.70;;;;;;;4.54;88.56;97548.72;8248816;28;20066;-71
2022/03/31 00:51:36;;;;;;;8.87;7.77;;;;;;;4.47;88.58;97547.91;8251969;28;20088;-71
2022/03/31 00:55:38;;;;;;;11.60;8.93;;;;;;;4.47;88.89;97536.78;8253705;28;20054;-71
2022/03/31 00:59:40;;;;;;;10.40;7.90;;;;;;;4.48;89.25;97536.75;8251119;28;20061;-70
2022/03/31 01:03:41;;;;;;;12.63;8.30;;;;;;;4.48;89.43;97531.59;8247948;28;20767;-71
2022/03/31 01:07:43;;;;;;;11.67;8.50;;;;;;;4.50;89.89;97531.63;8250832;28;20053;-71
2022/03/31 01:11:45;;;;;;;11.97;8.77;;;;;;;4.55;89.83;97529.84;8252363;28;20891;-71
2022/03/31 01:15:47;;;;;;;12.10;9.00;;;;;;;4.62;90.17;97521.19;8247722;28;20166;-71
2022/03/31 01:19:48;;;;;;;11.27;8.30;;;;;;;4.70;90.43;97515.97;8250359;28;20089;-71
2022/03/31 01:23:54;;;;;;;13.87;8.60;;;;;;;4.71;90.61;97508.25;8250858;28;20053;-71
2022/03/31 01:27:56;;;;;;;10.13;7.83;;;;;;;4.75;90.76;97506.50;8252095;28;20166;-71
2022/03/31 01:31:57;;;;;;;12.87;8.80;;;;;;;4.80;91.04;97500.41;8249042;28;20080;-71
2022/03/31 01:36:01;;;;;;;13.48;8.95;;;;;;;4.84;91.10;97503.78;8250784;28;20109;-70
2022/03/31 01:40:04;;;;;;;13.93;9.43;;;;;;;4.95;91.40;97491.66;8251079;28;20050;-71
2022/03/31 01:44:06;;;;;;;12.03;8.27;;;;;;;5.00;91.41;97489.88;8250667;28;20049;-71
2022/03/31 01:48:07;;;;;;;12.73;8.20;;;;;;;5.07;91.72;97488.94;8246164;28;20346;-71
2022/03/31 01:52:10;;;;;;;12.40;8.75;;;;;;;5.13;91.49;97478.56;8251609;28;20104;-71
2022/03/31 01:56:11;;;;;;;15.33;9.23;;;;;;;5.19;91.20;97464.75;8252105;28;20165;-71
2022/03/31 02:00:13;;;;;;;13.50;9.23;;;;;;;5.27;91.73;97460.38;8255888;28;20081;-71
2022/03/31 02:04:18;;;;;;;14.95;11.02;;;;;;;5.34;91.68;97456.81;8259069;28;20066;-71
2022/03/31 02:08:19;;;;;;;15.60;10.40;;;;;;;5.43;91.88;97451.53;8263548;28;20054;-71
2022/03/31 02:12:21;;;;;;;16.67;11.47;;;;;;;5.52;92.37;97447.13;8263739;28;20070;-71
2022/03/31 02:16:23;;;;;;;19.48;13.55;;;;;;;5.63;92.69;97443.50;8260238;28;20066;-70
2022/03/31 02:20:27;;;;;;;23.93;14.80;;;;;;;5.75;93.30;97433.03;8262300;28;20065;-70
2022/03/31 02:24:29;;;;;;;24.17;14.53;;;;;;;5.81;92.61;97432.06;8263390;28;20050;-70
2022/03/31 02:28:31;;;;;;;;;;;;;;;5.87;92.73;97437.09;8263309;28;20046;-70
2022/03/31 02:32:33;;;;;;;22.07;14.33;;;;;;;5.92;92.74;97431.88;8245482;28;19937;-70
2022/03/31 02:36:34;;;;;;;26.58;16.55;;;;;;;6.00;92.68;97427.47;8262061;28;20502;-70
2022/03/31 02:40:36;;;;;;;30.30;16.63;;;;;;;6.06;92.65;97412.72;8258836;28;20121;-70
2022/03/31 02:44:37;;;;;;;25.23;15.77;;;;;;;6.12;92.16;97410.94;8263091;28;20085;-70
2022/03/31 02:48:39;;;;;;;23.43;15.13;;;;;;;6.17;92.15;97401.41;8259431;28;20177;-70
2022/03/31 02:57:02;;;;;;;24.33;15.50;;;;;;;6.25;91.33;97389.19;8262343;28;20133;-71
2022/03/31 03:01:03;;;;;;;25.00;15.98;;;;;;;6.27;91.08;97385.72;8255007;28;20672;-70
2022/03/31 03:05:06;;;;;;;21.40;14.57;;;;;;;6.29;91.19;97383.97;8257499;28;20145;-70
2022/03/31 03:09:08;;;;;;;;;;;;;;;6.31;90.81;97384.78;8259107;28;20049;-70
2022/03/31 03:13:09;;;;;;;26.40;15.03;;;;;;;6.32;90.22;97381.34;8256060;28;20413;-70
2022/03/31 03:17:11;;;;;;;23.23;15.55;;;;;;;6.32;89.74;97390.78;8253888;28;20061;-70
2022/03/31 03:21:13;;;;;;;23.50;15.83;;;;;;;6.35;89.53;97385.56;8256065;28;20058;-70
2022/03/31 03:25:18;;;;;;;22.77;15.18;;;;;;;6.38;89.33;97382.94;8256703;28;20406;-70
2022/03/31 03:29:20;;;;;;;21.73;15.47;;;;;;;6.41;89.13;97376.84;8255964;28;20153;-70
2022/03/31 03:33:21;;;;;;;23.73;15.23;;;;;;;6.41;88.92;97377.72;8250841;28;20056;-70
2022/03/31 03:37:23;;;;;;;21.67;15.33;;;;;;;6.41;88.90;97375.13;8255841;28;20455;-70
2022/03/31 03:41:24;;;;;;;25.50;15.90;;;;;;;6.42;88.42;97361.34;8250680;28;20119;-70
2022/03/31 03:45:26;;;;;;;19.27;13.73;;;;;;;6.43;88.39;97368.22;8259992;28;20056;-70
2022/03/31 03:49:28;;;;;;;23.48;15.25;;;;;;;6.48;88.00;97365.56;8244226;28;20435;-70
2022/03/31 03:53:29;;;;;;;20.73;14.57;;;;;;;6.47;87.90;97358.72;8254985;28;20046;-70
2022/03/31 03:57:31;;;;;;;19.43;13.83;;;;;;;6.47;87.95;97361.28;8253146;28;20064;-70
2022/03/31 04:01:32;;;;;;;20.92;13.95;;;;;;;6.46;87.15;97360.41;8248914;28;20058;-70
2022/03/31 04:05:34;;;;;;;18.93;13.47;;;;;;;6.46;87.51;97365.56;8256844;28;20451;-70
2022/03/31 04:09:36;;;;;;;19.43;12.87;;;;;;;6.47;87.12;97361.28;8256459;28;20062;-70
2022/03/31 04:13:37;;;;;;;20.80;14.17;;;;;;;6.46;87.28;97368.13;8256197;28;20056;-70
2022/03/31 04:17:40;;;;;;;20.97;13.83;;;;;;;6.43;87.05;97357.91;8249036;28;20421;-70
2022/03/31 04:21:41;;;;;;;21.65;14.13;;;;;;;6.47;87.15;97361.28;8252872;28;20526;-71
2022/03/31 04:25:43;;;;;;;20.43;13.13;;;;;;;6.45;86.97;97356.13;8254731;28;20226;-70
2022/03/31 04:29:44;;;;;;;20.03;13.60;;;;;;;6.44;86.72;97357.03;8256054;28;20058;-70
2022/03/31 04:33:45;;;;;;;20.47;13.63;;;;;;;6.45;86.72;97355.28;8247306;28;20056;-70
2022/03/31 04:37:47;;;;;;;17.30;13.93;;;;;;;6.45;87.18;97345.81;8255115;28;20058;-70
2022/03/31 04:41:48;;;;;;;21.03;14.40;;;;;;;6.46;87.12;97344.94;8252610;28;20339;-71
2022/03/31 04:45:50;;;;;;;20.83;14.87;;;;;;;6.46;86.75;97339.78;8248496;28;20173;-70
2022/03/31 04:49:51;;;;;;;22.40;15.50;;;;;;;6.43;87.16;97350.16;8259116;28;20096;-70
2022/03/31 04:53:53;;;;;;;23.30;15.10;;;;;;;6.45;87.10;97350.13;8251230;28;20146;-71
2022/03/31 04:57:54;;;;;;;21.97;14.57;;;;;;;6.45;86.61;97350.97;8254897;28;20054;-71
2022/03/31 05:01:55;;;;;;;19.33;14.77;;;;;;;6.44;86.84;97336.41;8247547;28;20474;-71
2022/03/31 05:05:57;;;;;;;21.00;14.40;;;;;;;6.45;86.68;97340.66;8252550;28;20149;-70
2022/03/31 05:09:59;;;;;;;21.58;14.85;;;;;;;6.46;87.25;97339.78;8252291;28;20061;-70
2022/03/31 05:14:00;;;;;;;20.97;14.90;;;;;;;6.46;87.52;97341.50;8249105;28;20137;-70
2022/03/31 05:18:02;;;;;;;21.27;15.00;;;;;;;6.46;87.75;97351.81;8247810;28;20509;-71
2022/03/31 05:22:04;;;;;;;21.47;14.67;;;;;;;6.46;87.55;97354.41;8251985;28;20120;-70
2022/03/31 05:26:06;;;;;;;23.05;14.30;;;;;;;6.45;87.94;97347.56;8253381;28;20076;-71
2022/03/31 05:30:08;;;;;;;22.73;15.00;;;;;;;6.42;88.53;97353.63;8244748;28;20146;-71
2022/03/31 05:34:09;;;;;;;19.30;13.57;;;;;;;6.45;88.23;97353.56;8241435;28;20038;-71
2022/03/31 05:38:11;;;;;;;21.57;15.47;;;;;;;6.46;88.37;97342.38;8255884;28;20097;-72
2022/03/31 05:42:13;;;;;;;21.35;14.35;;;;;;;6.49;88.56;97346.63;8246311;28;20413;-72
2022/03/31 05:46:14;;;;;;;22.43;15.70;;;;;;;6.55;88.99;97349.06;8244516;28;20077;-71
2022/03/31 05:50:16;;;;;;;25.57;15.17;;;;;;;6.54;88.97;97358.53;8243600;28;20567;-70
2022/03/31 05:54:17;;;;;;;21.77;14.47;;;;;;;6.55;89.01;97344.75;8245382;28;20050;-71
2022/03/31 05:58:18;;;;;;;25.27;15.40;;;;;;;6.56;89.36;97343.88;8242055;28;20050;-70
2022/03/31 06:02:20;;;;;;;26.53;16.37;;;;;;;6.55;89.30;97343.91;8242744;28;20073;-71
2022/03/31 06:06:41;;;;;;;22.67;15.53;;;;;;;6.57;89.54;97343.00;8241057;28;20082;-70
2022/03/31 06:10:44;;;;;;;23.60;15.03;;;;;;;6.57;89.46;97345.56;8246269;28;20149;-70
2022/03/31 06:14:45;;;;;;;20.55;14.43;;;;;;;6.56;89.40;97346.47;8241454;28;20145;-70
2022/03/31 06:18:47;;;;;;;22.80;16.03;;;;;;;6.57;88.98;97348.16;8241821;28;20756;-70
2022/03/31 06:22:48;;;;;;;22.70;15.60;;;;;;;6.57;89.33;97349.88;8246992;28;20145;-70
2022/03/31 06:26:49;;;;;;;26.97;16.03;;;;;;;6.59;89.42;97345.53;8244768;28;20092;-70
2022/03/31 06:30:51;;;;;;;23.20;15.67;;;;;;;6.60;89.46;97348.09;8251431;28;20120;-69
2022/03/31 06:34:53;;;;;;;21.23;14.93;;;;;;;6.56;89.40;97343.88;8247978;28;20050;-69
2022/03/31 06:38:54;;;;;;;22.27;15.40;;;;;;;6.56;89.24;97348.19;8246355;28;20046;-69
2022/03/31 06:42:56;;;;;;;23.57;15.90;;;;;;;6.50;89.34;97345.75;8250385;28;20038;-69
2022/03/31 06:46:57;;;;;;;22.93;14.83;;;;;;;6.49;89.54;97344.91;8249674;28;20069;-69
2022/03/31 06:50:59;;;;;;;21.47;14.33;;;;;;;6.50;89.92;97343.19;8249797;28;20097;-68
2022/03/31 06:55:01;;;;;;;18.33;13.33;;;;;;;6.51;89.80;97347.44;8249288;28;20050;-68
2022/03/31 06:59:03;;;;;;;22.75;15.05;;;;;;;6.49;89.44;97350.06;8248982;28;20600;-69
2022/03/31 07:03:05;;;;;;;19.50;14.20;;;;;;;6.48;89.95;97350.94;8246699;28;20054;-70
2022/03/31 07:07:07;;;;;;;21.00;15.25;;;;;;;6.52;89.85;97351.72;8249968;28;20078;-70
2022/03/31 07:11:10;;;;;;;20.57;14.07;;;;;;;6.50;89.65;97349.19;8253082;28;20050;-70
2022/03/31 07:15:11;;;;;;;20.07;14.97;;;;;;;6.49;89.70;97347.47;8246615;28;20046;-70
2022/03/31 07:19:13;;;;;;;21.17;14.83;;;;;;;6.48;89.57;97350.94;8243886;28;20053;-71
2022/03/31 07:23:14;;;;;;;20.63;14.63;;;;;;;6.50;90.13;97348.34;8251532;28;20445;-70
2022/03/31 07:27:16;;;;;;;22.50;14.83;;;;;;;6.49;90.34;97347.47;8249000;28;20706;-71
2022/03/31 07:31:18;;;;;;;21.60;15.07;;;;;;;6.48;90.32;97345.78;8241131;28;20096;-70
2022/03/31 07:35:21;;;;;;;23.00;15.67;;;;;;;6.47;90.17;97354.41;8246498;28;20051;-70
2022/03/31 07:39:23;;;;;;;23.67;16.10;;;;;;;6.47;90.48;97358.72;8246333;28;20088;-70
2022/03/31 07:43:27;;;;;;;24.57;16.53;;;;;;;6.48;91.10;97343.22;8253863;28;20149;-69
2022/03/31 07:47:28;;;;;;;19.33;14.43;;;;;;;6.51;91.20;97350.88;8241017;28;20149;-69
2022/03/31 07:51:29;;;;;;;19.47;13.83;;;;;;;6.58;91.15;97349.00;8243382;28;20058;-70
2022/03/31 07:55:31;;;;;;;21.90;16.00;;;;;;;6.63;91.25;97350.59;8245160;28;20351;-71
2022/03/31 07:59:33;;;;;;;22.80;15.05;;;;;;;6.69;90.94;97353.94;8247415;28;20366;-71
2022/03/31 08:03:35;;;;;;;;;;;;;;;6.76;90.64;97350.34;8246584;28;20058;-71
2022/03/31 08:07:37;;;;;;;20.90;13.97;;;;;;;6.79;90.53;97342.53;8253160;28;19926;-71
2022/03/31 08:11:39;;;;;;;17.23;12.68;;;;;;;6.79;90.13;97347.69;8249148;28;20065;-71
2022/03/31 08:15:41;;;;;;;18.17;12.85;;;;;;;6.77;90.13;97344.28;8245218;28;20050;-71
2022/03/31 08:19:43;;;;;;;18.40;13.60;;;;;;;6.73;90.40;97343.50;8247304;28;20054;-71
2022/03/31 08:23:45;;;;;;;21.70;14.20;;;;;;;6.75;90.28;97341.75;8244514;28;20067;-71
2022/03/31 08:27:47;;;;;;;19.90;13.97;;;;;;;6.78;89.68;97343.41;8244092;28;20108;-71
2022/03/31 08:31:53;;;;;;;20.70;14.50;;;;;;;6.85;90.22;97347.56;8245655;28;20062;-71
2022/03/31 08:35:55;;;;;;;21.80;15.00;;;;;;;6.86;89.60;97339.78;8249832;28;20077;-71
2022/03/31 08:39:56;;;;;;;20.80;13.77;;;;;;;6.95;89.79;97336.97;8247084;28;20068;-71
2022/03/31 08:43:58;;;;;;;19.77;13.93;;;;;;;7.07;89.46;97335.00;8246806;28;20506;-71
2022/03/31 08:48:01;;;;;;;19.75;13.88;;;;;;;7.14;89.71;97339.97;8242169;28;20400;-71
2022/03/31 08:52:03;;;;;;;19.63;13.50;;;;;;;7.31;89.77;97343.88;8246556;28;20046;-71
2022/03/31 08:56:05;;;;;;;16.70;12.73;;;;;;;7.44;89.84;97342.72;8242499;28;20054;-71
2022/03/31 09:00:09;;;;;;;18.40;12.73;;;;;;;7.61;89.42;97345.72;8240521;28;20134;-71
2022/03/31 09:04:24;;;;;;;16.23;11.97;;;;;;;7.76;88.97;97342.75;8245857;28;20050;-72
2022/03/31 09:08:26;;;;;;;16.70;12.17;;;;;;;7.91;88.43;97346.66;8261635;28;20124;-71
2022/03/31 09:12:40;;;;;;;15.77;11.00;;;;;;;7.98;86.86;97353.34;8244863;28;20054;-71
2022/03/31 09:17:12;;;;;;;16.63;11.13;;;;;;;7.97;86.85;97351.66;8239137;28;20065;-71
2022/03/31 09:21:15;;;;;;;14.20;10.90;;;;;;;7.86;85.60;97356.25;8246315;28;20552;-71
2022/03/31 09:25:29;;;;;;;14.63;10.80;;;;;;;7.81;85.62;97352.94;8247616;28;20674;-71
2022/03/31 09:29:33;;;;;;;15.23;11.07;;;;;;;7.75;85.63;97351.38;8251146;28;20058;-71
2022/03/31 09:33:37;;;;;;;15.67;11.20;;;;;;;7.76;85.83;97353.06;8244303;28;20774;-71
2022/03/31 09:37:38;;;;;;;15.07;10.60;;;;;;;7.80;85.54;97349.50;8247019;28;20141;-71
2022/03/31 09:41:41;;;;;;;15.98;11.15;;;;;;;7.86;85.66;97351.94;8248031;28;20157;-71
2022/03/31 09:45:44;;;;;;;15.35;11.90;;;;;;;7.90;85.60;97347.56;8242604;28;20133;-70
2022/03/31 09:49:54;;;;;;;16.27;10.52;;;;;;;7.95;86.11;97343.09;8245070;28;20058;-71
2022/03/31 09:53:56;;;;;;;16.08;11.38;;;;;;;7.95;86.14;97339.66;8247205;28;20137;-70
2022/03/31 09:57:57;;;;;;;16.10;10.93;;;;;;;8.00;85.67;97341.22;8238570;28;20050;-71
2022/03/31 10:02:00;;;;;;;14.93;10.63;;;;;;;8.02;85.66;97336.88;8239615;28;20522;-70
2022/03/31 10:06:03;;;;;;;16.20;11.32;;;;;;;7.99;85.48;97338.69;8247868;28;20060;-70
2022/03/31 10:10:05;;;;;;;15.93;11.15;;;;;;;7.99;85.40;97336.09;8246252;28;20061;-71
2022/03/31 10:14:25;;;;;;;16.35;10.00;;;;;;;7.93;84.33;97333.69;8247764;28;20470;-70
2022/03/31 10:18:26;;;;;;;13.60;10.13;;;;;;;7.97;84.14;97335.31;8243755;28;20100;-71
2022/03/31 10:27:01;;;;;;;12.43;9.70;;;;;;;8.18;84.09;97329.53;8248269;28;20062;-70
2022/03/31 10:31:09;;;;;;;18.43;10.97;;;;;;;8.21;83.99;97323.44;8247866;28;20058;-70
2022/03/31 10:35:21;;;;;;;14.00;10.45;;;;;;;8.16;84.02;97320.97;8255888;28;20057;-70
2022/03/31 10:39:24;;;;;;;14.60;10.03;;;;;;;8.09;84.00;97324.63;8255538;28;20053;-70
2022/03/31 10:43:32;;;;;;;15.07;10.50;;;;;;;8.09;84.00;97320.31;8255287;28;20046;-70
2022/03/31 10:47:35;;;;;;;14.30;10.05;;;;;;;8.08;84.11;97325.53;8251229;28;20066;-71
2022/03/31 10:51:37;;;;;;;;;;;;;;;8.08;84.28;97328.13;8254767;28;20062;-72
2022/03/31 10:55:40;;;;;;;10.82;8.15;;;;;;;8.06;83.40;97324.69;8253616;28;20400;-71
2022/03/31 10:59:44;;;;;;;10.40;8.70;;;;;;;8.00;82.48;97314.53;8254324;28;20054;-71
2022/03/31 11:03:47;;;;;;;10.65;7.97;;;;;;;7.95;82.58;97322.44;8246551;28;20142;-70
2022/03/31 11:07:49;;;;;;;9.23;8.15;;;;;;;7.95;82.23;97314.69;8251863;28;20121;-70
2022/03/31 11:11:51;;;;;;;11.52;8.43;;;;;;;7.98;82.44;97314.59;8247032;28;20081;-70
2022/03/31 11:15:56;;;;;;;12.05;9.00;;;;;;;7.94;81.71;97310.41;8241199;28;20459;-71
2022/03/31 11:20:03;;;;;;;10.10;7.78;;;;;;;7.92;81.32;97316.50;8246532;28;20129;-71
2022/03/31 11:24:06;;;;;;;10.33;8.47;;;;;;;7.87;80.86;97304.53;8247192;28;20050;-70
2022/03/31 11:28:10;;;;;;;11.02;7.80;;;;;;;7.90;81.28;97311.38;8254753;28;20447;-71
2022/03/31 11:32:12;;;;;;;10.73;7.97;;;;;;;7.91;81.15;97305.31;8248309;28;20061;-71
2022/03/31 11:36:14;;;;;;;12.60;8.97;;;;;;;8.01;81.77;97303.31;8253272;28;20116;-71
2022/03/31 11:40:23;;;;;;;9.95;7.95;;;;;;;8.12;80.86;97301.28;8252866;28;20058;-71
2022/03/31 11:44:26;;;;;;;10.97;7.27;;;;;;;8.20;80.75;97299.31;8253224;28;20042;-71
2022/03/31 11:48:35;;;;;;;12.27;7.90;;;;;;;8.27;80.74;97293.09;8246511;28;20065;-71
2022/03/31 11:52:36;;;;;;;10.35;8.38;;;;;;;8.32;79.45;97295.53;8241197;28;20058;-70
2022/03/31 11:56:37;;;;;;;10.20;7.78;;;;;;;8.38;79.87;97290.22;8249745;28;20054;-70
2022/03/31 12:00:49;;;;;;;9.27;7.63;;;;;;;8.45;78.78;97289.16;8249479;28;20470;-70
2022/03/31 12:04:50;;;;;;;8.77;7.18;;;;;;;8.47;78.05;97288.22;8244571;28;20050;-70
2022/03/31 12:08:55;;;;;;;9.10;7.60;;;;;;;8.52;77.96;97288.06;8263325;28;20418;-70
2022/03/31 12:12:59;;;;;;;9.23;7.00;;;;;;;8.54;77.62;97293.19;8249659;28;20852;-70
2022/03/31 12:17:01;;;;;;;8.98;7.07;;;;;;;8.52;77.22;97301.00;8242782;28;20080;-70
2022/03/31 12:21:05;;;;;;;7.97;6.23;;;;;;;8.42;76.15;97291.81;8245696;28;20054;-70
2022/03/31 12:25:07;;;;;;;9.65;6.95;;;;;;;8.42;76.65;97292.66;8248497;28;20120;-70
2022/03/31 12:29:19;;;;;;;9.53;6.87;;;;;;;8.46;76.42;97291.69;8249882;28;20336;-70
2022/03/31 12:33:24;;;;;;;7.80;6.73;;;;;;;8.50;76.21;97297.63;8247614;28;20058;-71
2022/03/31 12:37:34;;;;;;;9.57;6.93;;;;;;;8.46;75.64;97296.88;8252090;28;20378;-70
2022/03/31 12:41:39;;;;;;;9.80;7.30;;;;;;;8.47;75.65;97302.88;8263014;28;20062;-70
2022/03/31 12:45:40;;;;;;;8.45;7.32;;;;;;;8.49;76.06;97303.69;8262538;28;20129;-70
2022/03/31 12:49:42;;;;;;;8.55;6.85;;;;;;;8.54;76.47;97301.81;8250919;28;20442;-69
2022/03/31 12:53:43;;;;;;;9.10;6.90;;;;;;;8.55;75.17;97303.50;8246883;28;20050;-70
2022/03/31 12:57:54;;;;;;;8.77;6.35;;;;;;;8.53;74.91;97307.03;8249778;28;20057;-70
2022/03/31 13:01:57;;;;;;;10.23;7.07;;;;;;;8.43;74.68;97304.69;8238517;28;20054;-70
2022/03/31 13:06:01;;;;;;;7.70;6.22;;;;;;;8.35;74.74;97306.66;8246117;28;20057;-70
2022/03/31 13:10:06;;;;;;;8.32;6.63;;;;;;;8.25;75.12;97310.38;8251731;28;20713;-70
2022/03/31 13:14:10;;;;;;;8.73;6.80;;;;;;;8.21;76.08;97302.75;8254888;28;20076;-70
2022/03/31 13:18:11;;;;;;;7.18;6.03;;;;;;;8.19;76.44;97307.97;8250852;28;20092;-70
2022/03/31 13:22:28;;;;;;;9.48;6.97;;;;;;;8.19;76.74;97313.13;8256467;28;20134;-70
2022/03/31 13:26:30;;;;;;;10.60;7.28;;;;;;;8.18;76.89;97298.50;8253533;28;20046;-70
2022/03/31 13:30:32;;;;;;;11.57;8.45;;;;;;;8.17;78.30;97307.16;8250135;28;20046;-70
2022/03/31 13:34:35;;;;;;;9.23;7.47;;;;;;;8.15;78.84;97314.97;8253225;28;20058;-70
2022/03/31 13:38:36;;;;;;;;;;;;;;;8.15;79.07;97308.94;8250415;28;20058;-70
2022/03/31 13:42:38;;;;;;;12.93;7.70;;;;;;;8.16;79.67;97310.66;8244848;28;19933;-71
2022/03/31 13:46:42;;;;;;;10.35;7.07;;;;;;;8.16;79.76;97310.66;8238915;28;20054;-70
2022/03/31 13:50:45;;;;;;;11.13;8.38;;;;;;;8.16;80.66;97310.66;8241035;28;20058;-70
2022/03/31 13:54:46;;;;;;;12.35;8.73;;;;;;;8.12;80.02;97309.88;8250945;28;20137;-71
2022/03/31 14:03:09;;;;;;;12.25;8.85;;;;;;;8.09;81.88;97316.88;8252881;28;20374;-70
2022/03/31 14:07:10;;;;;;;13.37;9.90;;;;;;;8.00;82.98;97314.53;8252872;28;20050;-70
2022/03/31 14:11:12;;;;;;;12.15;9.18;;;;;;;7.98;83.23;97314.59;8256317;28;20796;-70
2022/03/31 14:15:14;;;;;;;12.32;8.57;;;;;;;8.02;84.11;97312.75;8251952;28;20042;-70
2022/03/31 14:19:17;;;;;;;10.07;8.27;;;;;;;8.01;83.47;97319.66;8256295;28;20157;-70
2022/03/31 14:23:19;;;;;;;11.80;8.80;;;;;;;8.03;83.05;97322.22;8255242;28;20133;-70
2022/03/31 14:27:22;;;;;;;11.53;8.53;;;;;;;8.00;82.83;97323.13;8253465;28;20145;-70
2022/03/31 14:31:25;;;;;;;;;;;;;;;7.97;82.79;97318.06;8249794;28;20145;-69
2022/03/31 14:35:36;;;;;;;11.73;8.20;;;;;;;7.98;83.30;97326.66;8249105;28;20059;-71
2022/03/31 14:39:37;;;;;;;10.37;8.43;;;;;;;7.98;83.17;97327.50;8245236;28;20149;-70
2022/03/31 14:43:42;;;;;;;13.93;9.68;;;;;;;7.89;83.01;97326.00;8252238;28;20804;-70
2022/03/31 14:47:45;;;;;;;11.60;8.43;;;;;;;7.87;82.79;97327.78;8246466;28;20066;-71
2022/03/31 14:51:47;;;;;;;15.17;8.87;;;;;;;7.81;83.09;97325.38;8244435;28;20145;-71
2022/03/31 14:55:49;;;;;;;11.00;8.35;;;;;;;7.80;83.88;97334.00;8250075;28;20069;-71
2022/03/31 14:59:51;;;;;;;12.93;8.87;;;;;;;7.76;84.59;97329.81;8253913;28;20069;-71
2022/03/31 15:03:53;;;;;;;;;;;;;;;7.75;84.94;97329.88;8251942;28;20060;-71
2022/03/31 15:07:54;;;;;;;18.13;8.68;;;;;;;7.73;84.63;97334.22;8251286;28;20281;-71
2022/03/31 15:16:16;;;;;;;10.48;8.40;;;;;;;7.66;84.93;97337.84;8249730;28;20128;-71
2022/03/31 15:20:18;;;;;;;13.07;9.47;;;;;;;7.67;85.54;97337.81;8253102;28;20058;-71
2022/03/31 15:24:20;;;;;;;12.37;8.57;;;;;;;7.68;85.30;97342.06;8246036;28;20304;-71
2022/03/31 15:28:21;;;;;;;11.95;9.18;;;;;;;7.72;86.39;97337.66;8249011;28;20627;-71
2022/03/31 15:32:25;;;;;;;11.53;8.10;;;;;;;7.72;86.26;97340.25;8249936;28;20058;-71
2022/03/31 15:36:26;;;;;;;9.77;7.80;;;;;;;7.69;86.31;97336.03;8251270;28;20896;-70
2022/03/31 15:40:28;;;;;;;9.77;7.53;;;;;;;7.65;85.83;97346.47;8252448;28;20153;-70
2022/03/31 15:44:29;;;;;;;10.10;7.68;;;;;;;7.62;85.16;97339.66;8252740;28;20046;-70
2022/03/31 15:48:31;;;;;;;13.70;8.33;;;;;;;7.61;84.84;97337.13;8248676;28;20062;-71
2022/03/31 15:52:32;;;;;;;8.80;6.80;;;;;;;7.56;85.44;97340.69;8250271;28;20705;-70
2022/03/31 15:56:34;;;;;;;9.47;7.17;;;;;;;7.57;86.30;97350.13;8266048;28;20048;-70
2022/03/31 16:00:36;;;;;;;10.70;7.93;;;;;;;7.55;86.12;97343.31;8249310;28;20672;-71
2022/03/31 16:04:39;;;;;;;10.15;7.68;;;;;;;7.48;86.60;97355.50;8252187;28;20165;-71
2022/03/31 16:08:40;;;;;;;9.35;7.07;;;;;;;7.44;86.65;97351.31;8252964;28;20050;-70
2022/03/31 16:12:42;;;;;;;8.53;6.87;;;;;;;7.40;86.43;97352.28;8251157;28;20514;-70
2022/03/31 16:16:43;;;;;;;10.47;6.57;;;;;;;7.33;86.33;97362.75;8248084;28;20467;-70
2022/03/31 16:20:45;;;;;;;7.77;6.47;;;;;;;7.28;86.92;97363.72;8250408;28;20054;-71
2022/03/31 16:24:47;;;;;;;10.40;6.63;;;;;;;7.28;86.52;97362.88;8244742;28;20050;-70
2022/03/31 16:28:51;;;;;;;7.30;6.00;;;;;;;7.24;86.52;97372.44;8240305;28;20064;-70
2022/03/31 16:32:52;;;;;;;9.57;5.97;;;;;;;7.21;86.15;97379.41;8237125;28;20068;-70
2022/03/31 16:36:54;;;;;;;7.57;5.97;;;;;;;7.18;86.20;97369.13;8247695;28;20054;-69
2022/03/31 16:40:56;;;;;;;8.53;6.63;;;;;;;7.17;85.85;97373.44;8249452;28;20056;-70
2022/03/31 16:44:57;;;;;;;6.80;5.65;;;;;;;7.15;85.53;97376.94;8240220;28;20099;-70
2022/03/31 16:48:58;;;;;;;8.77;6.10;;;;;;;7.18;86.22;97376.88;8236246;28;20069;-70
2022/03/31 16:53:00;;;;;;;6.67;5.13;;;;;;;7.18;86.22;97384.63;8240341;28;20054;-70
2022/03/31 16:57:02;;;;;;;6.90;5.57;;;;;;;7.18;85.85;97377.75;8241798;28;20060;-70
2022/03/31 17:01:04;;;;;;;8.93;5.65;;;;;;;7.22;86.36;97388.84;8236537;28;20797;-70
2022/03/31 17:05:06;;;;;;;8.93;6.30;;;;;;;7.23;86.18;97391.38;8248183;28;20861;-70
2022/03/31 17:09:08;;;;;;;6.75;5.65;;;;;;;7.19;86.21;97389.78;8249686;28;20089;-70
2022/03/31 17:13:10;;;;;;;8.80;5.80;;;;;;;7.12;86.76;97395.09;8249029;28;20054;-70
2022/03/31 17:17:12;;;;;;;6.20;5.57;;;;;;;7.08;87.30;97402.06;8244545;28;20354;-70
2022/03/31 17:21:17;;;;;;;6.77;5.43;;;;;;;7.05;87.28;97407.28;8250220;28;20050;-70
2022/03/31 17:25:19;;;;;;;8.30;6.07;;;;;;;7.06;87.53;97415.88;8250880;28;20046;-70
2022/03/31 17:29:20;;;;;;;7.03;5.80;;;;;;;6.98;87.07;97409.16;8251601;28;20065;-69
2022/03/31 17:33:26;;;;;;;8.37;6.03;;;;;;;6.97;86.87;97416.91;8246576;28;20063;-69
2022/03/31 17:37:27;;;;;;;7.70;6.20;;;;;;;6.94;86.72;97435.91;8251299;28;20050;-69
2022/03/31 17:41:29;;;;;;;6.07;5.47;;;;;;;6.89;86.87;97437.75;8252000;28;20809;-70
2022/03/31 17:45:31;;;;;;;5.77;5.10;;;;;;;6.72;85.85;97444.13;8246733;28;20435;-69
2022/03/31 17:49:33;;;;;;;5.87;4.43;;;;;;;6.68;86.19;97452.81;8249790;28;20064;-69
2022/03/31 17:53:34;;;;;;;3.87;3.43;;;;;;;6.58;85.53;97452.13;8248108;28;20981;-70
2022/03/31 17:57:45;;;;;;;4.87;3.23;;;;;;;6.49;85.33;97463.50;8248825;28;20050;-70
2022/03/31 18:01:50;;;;;;;3.30;3.00;;;;;;;6.43;84.95;97473.91;8244866;28;20068;-69
2022/03/31 18:05:51;;;;;;;3.97;3.30;;;;;;;6.33;85.16;97475.81;8247099;28;20051;-69
2022/03/31 18:09:53;;;;;;;3.60;3.20;;;;;;;6.22;85.19;97484.59;8247585;28;20064;-69
2022/03/31 18:13:55;;;;;;;4.00;3.47;;;;;;;6.20;85.00;97494.09;8247717;28;20081;-69
2022/03/31 18:17:56;;;;;;;4.23;3.43;;;;;;;6.16;85.36;97489.88;8242963;28;20065;-69
2022/03/31 18:21:59;;;;;;;3.30;3.00;;;;;;;6.07;85.10;97494.28;8247800;28;20054;-69
2022/03/31 18:26:02;;;;;;;4.37;3.83;;;;;;;6.04;85.55;97501.22;8247579;28;20049;-69
2022/03/31 18:34:27;;;;;;;4.77;4.27;;;;;;;5.85;84.02;97516.09;8243252;28;20070;-70
2022/03/31 18:38:29;;;;;;;3.70;3.40;;;;;;;5.81;84.61;97524.75;8248308;28;20058;-70
2022/03/31 18:42:31;;;;;;;4.07;3.43;;;;;;;5.68;84.16;97524.09;8253312;28;20050;-70
2022/03/31 18:46:34;;;;;;;3.42;3.13;;;;;;;5.64;84.63;97531.88;8247830;28;20136;-70
2022/03/31 18:50:37;;;;;;;3.53;3.23;;;;;;;5.64;84.38;97537.88;8256291;28;20069;-71
2022/03/31 18:54:39;;;;;;;3.17;2.83;;;;;;;5.63;84.35;97545.63;8259675;28;20894;-71
2022/03/31 18:58:41;;;;;;;3.67;3.07;;;;;;;5.58;84.70;97552.59;8260184;28;20415;-70
2022/03/31 19:02:47;;;;;;;3.40;3.10;;;;;;;5.52;84.67;97553.50;8257844;28;20066;-70
2022/03/31 19:06:58;;;;;;;3.33;3.03;;;;;;;5.44;83.97;97555.34;8259579;28;20054;-71
2022/03/31 19:10:59;;;;;;;3.03;2.77;;;;;;;5.39;84.31;97557.13;8259714;28;20057;-71
2022/03/31 19:15:01;;;;;;;4.97;2.80;;;;;;;5.34;84.48;97564.91;8259247;28;20045;-70
2022/03/31 19:19:03;;;;;;;6.07;3.83;;;;;;;5.33;84.28;97562.34;8260474;28;20096;-71
2022/03/31 19:23:08;;;;;;;3.53;3.22;;;;;;;5.24;84.33;97571.06;8257242;28;20054;-70
2022/03/31 19:27:10;;;;;;;3.53;3.27;;;;;;;5.21;84.33;97559.94;8260879;28;20129;-71